sensor_id;sensor_type;location;lat;lon;timestamp;P1;durP1;ratioP1;P2;durP2;ratioP2
25721;SDS011;13578;53.450;15.496;2022-11-15T00:00:50;92.95;;;35.65;;
25721;SDS011;13578;53.450;15.496;2022-11-15T00:03:51;95.38;;;35.42;;
25721;SDS011;13578;53.450;15.496;2022-11-15T00:06:52;96.70;;;34.10;;
25721;SDS011;13578;53.450;15.496;2022-11-15T00:09:52;85.40;;;35.92;;
25721;SDS011;13578;53.450;15.496;2022-11-15T00:12:53;83.70;;;31.58;;
25721;SDS011;13578;53.450;15.496;2022-11-15T00:15:56;85.55;;;33.65;;
25721;SDS011;13578;53.450;15.496;2022-11-15T00:18:58;90.25;;;31.65;;
25721;SDS011;13578;53.450;15.496;2022-11-15T00:21:59;91.82;;;33.78;;
25721;SDS011;13578;53.450;15.496;2022-11-15T00:24:59;83.10;;;32.05;;
25721;SDS011;13578;53.450;15.496;2022-11-15T00:28:00;90.03;;;33.55;;
25721;SDS011;13578;53.450;15.496;2022-11-15T00:31:04;74.82;;;32.17;;
25721;SDS011;13578;53.450;15.496;2022-11-15T00:34:06;83.78;;;33.15;;
25721;SDS011;13578;53.450;15.496;2022-11-15T00:37:07;86.03;;;34.33;;
25721;SDS011;13578;53.450;15.496;2022-11-15T00:40:08;87.93;;;32.65;;
25721;SDS011;13578;53.450;15.496;2022-11-15T00:43:12;77.47;;;30.92;;
25721;SDS011;13578;53.450;15.496;2022-11-15T00:46:13;94.63;;;33.47;;
25721;SDS011;13578;53.450;15.496;2022-11-15T00:49:14;73.93;;;32.15;;
25721;SDS011;13578;53.450;15.496;2022-11-15T00:52:14;108.65;;;34.35;;
25721;SDS011;13578;53.450;15.496;2022-11-15T00:55:15;78.13;;;31.63;;
25721;SDS011;13578;53.450;15.496;2022-11-15T00:58:17;90.82;;;31.38;;
25721;SDS011;13578;53.450;15.496;2022-11-15T01:01:18;84.25;;;32.35;;
25721;SDS011;13578;53.450;15.496;2022-11-15T01:04:18;77.10;;;30.83;;
25721;SDS011;13578;53.450;15.496;2022-11-15T01:07:19;81.47;;;29.58;;
25721;SDS011;13578;53.450;15.496;2022-11-15T01:10:19;76.25;;;29.55;;
25721;SDS011;13578;53.450;15.496;2022-11-15T01:13:20;73.50;;;28.42;;
25721;SDS011;13578;53.450;15.496;2022-11-15T01:16:21;74.30;;;31.95;;
25721;SDS011;13578;53.450;15.496;2022-11-15T01:19:22;68.22;;;28.48;;
25721;SDS011;13578;53.450;15.496;2022-11-15T01:22:22;72.95;;;30.13;;
25721;SDS011;13578;53.450;15.496;2022-11-15T01:25:23;82.03;;;30.65;;
25721;SDS011;13578;53.450;15.496;2022-11-15T01:28:23;83.38;;;28.45;;
25721;SDS011;13578;53.450;15.496;2022-11-15T01:31:24;71.35;;;29.75;;
25721;SDS011;13578;53.450;15.496;2022-11-15T01:34:24;83.25;;;29.63;;
25721;SDS011;13578;53.450;15.496;2022-11-15T01:37:25;84.55;;;31.00;;
25721;SDS011;13578;53.450;15.496;2022-11-15T01:40:26;77.38;;;31.52;;
25721;SDS011;13578;53.450;15.496;2022-11-15T01:43:28;70.20;;;27.52;;
25721;SDS011;13578;53.450;15.496;2022-11-15T01:46:30;70.25;;;28.35;;
25721;SDS011;13578;53.450;15.496;2022-11-15T01:49:35;72.50;;;29.20;;
25721;SDS011;13578;53.450;15.496;2022-11-15T01:52:39;84.82;;;29.45;;
25721;SDS011;13578;53.450;15.496;2022-11-15T01:55:41;63.88;;;26.88;;
25721;SDS011;13578;53.450;15.496;2022-11-15T01:58:42;84.63;;;28.80;;
25721;SDS011;13578;53.450;15.496;2022-11-15T02:01:45;73.63;;;28.25;;
25721;SDS011;13578;53.450;15.496;2022-11-15T02:04:47;74.03;;;28.42;;
25721;SDS011;13578;53.450;15.496;2022-11-15T02:07:48;58.15;;;26.58;;
25721;SDS011;13578;53.450;15.496;2022-11-15T02:10:49;62.53;;;26.95;;
25721;SDS011;13578;53.450;15.496;2022-11-15T02:13:49;71.43;;;26.77;;
25721;SDS011;13578;53.450;15.496;2022-11-15T02:33:56;76.47;;;26.30;;
25721;SDS011;13578;53.450;15.496;2022-11-15T02:44:28;76.80;;;26.13;;
25721;SDS011;13578;53.450;15.496;2022-11-15T02:47:34;71.78;;;25.48;;
25721;SDS011;13578;53.450;15.496;2022-11-15T02:50:41;59.72;;;25.77;;
25721;SDS011;13578;53.450;15.496;2022-11-15T02:53:43;77.57;;;27.67;;
25721;SDS011;13578;53.450;15.496;2022-11-15T02:56:44;72.20;;;26.08;;
25721;SDS011;13578;53.450;15.496;2022-11-15T03:03:27;71.95;;;26.27;;
25721;SDS011;13578;53.450;15.496;2022-11-15T03:10:07;78.88;;;27.55;;
25721;SDS011;13578;53.450;15.496;2022-11-15T03:13:16;68.18;;;26.05;;
25721;SDS011;13578;53.450;15.496;2022-11-15T03:16:55;56.25;;;25.15;;
25721;SDS011;13578;53.450;15.496;2022-11-15T03:20:10;61.67;;;25.35;;
25721;SDS011;13578;53.450;15.496;2022-11-15T03:23:14;63.95;;;25.67;;
25721;SDS011;13578;53.450;15.496;2022-11-15T03:26:15;64.93;;;25.20;;
25721;SDS011;13578;53.450;15.496;2022-11-15T03:29:22;70.47;;;27.52;;
25721;SDS011;13578;53.450;15.496;2022-11-15T03:32:28;68.50;;;26.17;;
25721;SDS011;13578;53.450;15.496;2022-11-15T03:35:32;63.55;;;25.65;;
25721;SDS011;13578;53.450;15.496;2022-11-15T03:38:37;56.95;;;26.08;;
25721;SDS011;13578;53.450;15.496;2022-11-15T03:45:14;61.50;;;25.30;;
25721;SDS011;13578;53.450;15.496;2022-11-15T03:48:23;51.80;;;23.60;;
25721;SDS011;13578;53.450;15.496;2022-11-15T03:51:28;59.83;;;25.02;;
25721;SDS011;13578;53.450;15.496;2022-11-15T03:54:30;63.00;;;26.17;;
25721;SDS011;13578;53.450;15.496;2022-11-15T03:57:30;65.32;;;24.40;;
25721;SDS011;13578;53.450;15.496;2022-11-15T04:00:31;72.03;;;24.70;;
25721;SDS011;13578;53.450;15.496;2022-11-15T04:03:32;53.78;;;23.25;;
25721;SDS011;13578;53.450;15.496;2022-11-15T04:06:32;63.15;;;24.48;;
25721;SDS011;13578;53.450;15.496;2022-11-15T04:09:33;75.07;;;24.60;;
25721;SDS011;13578;53.450;15.496;2022-11-15T04:12:54;55.13;;;23.88;;
25721;SDS011;13578;53.450;15.496;2022-11-15T04:15:54;53.13;;;22.75;;
25721;SDS011;13578;53.450;15.496;2022-11-15T04:18:55;68.45;;;24.58;;
25721;SDS011;13578;53.450;15.496;2022-11-15T04:22:14;68.45;;;24.08;;
25721;SDS011;13578;53.450;15.496;2022-11-15T04:25:32;52.00;;;22.48;;
25721;SDS011;13578;53.450;15.496;2022-11-15T04:28:33;67.65;;;24.08;;
25721;SDS011;13578;53.450;15.496;2022-11-15T04:31:34;63.03;;;22.83;;
25721;SDS011;13578;53.450;15.496;2022-11-15T04:34:35;49.45;;;22.00;;
25721;SDS011;13578;53.450;15.496;2022-11-15T04:37:35;56.97;;;23.88;;
25721;SDS011;13578;53.450;15.496;2022-11-15T04:40:36;66.93;;;24.58;;
25721;SDS011;13578;53.450;15.496;2022-11-15T04:43:37;58.30;;;23.08;;
25721;SDS011;13578;53.450;15.496;2022-11-15T04:46:38;66.07;;;21.48;;
25721;SDS011;13578;53.450;15.496;2022-11-15T04:49:38;59.55;;;22.83;;
25721;SDS011;13578;53.450;15.496;2022-11-15T04:52:40;58.67;;;23.88;;
25721;SDS011;13578;53.450;15.496;2022-11-15T04:55:49;57.38;;;21.67;;
25721;SDS011;13578;53.450;15.496;2022-11-15T04:58:50;62.90;;;25.27;;
25721;SDS011;13578;53.450;15.496;2022-11-15T05:01:51;50.45;;;20.85;;
25721;SDS011;13578;53.450;15.496;2022-11-15T05:04:51;53.70;;;23.00;;
25721;SDS011;13578;53.450;15.496;2022-11-15T05:07:52;55.58;;;22.33;;
25721;SDS011;13578;53.450;15.496;2022-11-15T05:10:53;65.47;;;23.17;;
25721;SDS011;13578;53.450;15.496;2022-11-15T05:13:53;53.28;;;22.33;;
25721;SDS011;13578;53.450;15.496;2022-11-15T05:16:54;56.35;;;21.52;;
25721;SDS011;13578;53.450;15.496;2022-11-15T05:19:55;56.72;;;22.33;;
25721;SDS011;13578;53.450;15.496;2022-11-15T05:22:55;49.53;;;20.52;;
25721;SDS011;13578;53.450;15.496;2022-11-15T05:25:59;50.97;;;21.90;;
25721;SDS011;13578;53.450;15.496;2022-11-15T05:29:01;63.92;;;22.20;;
25721;SDS011;13578;53.450;15.496;2022-11-15T05:32:03;55.78;;;22.92;;
25721;SDS011;13578;53.450;15.496;2022-11-15T05:35:05;52.97;;;21.85;;
25721;SDS011;13578;53.450;15.496;2022-11-15T05:38:09;49.72;;;22.08;;
25721;SDS011;13578;53.450;15.496;2022-11-15T05:41:09;60.70;;;22.95;;
25721;SDS011;13578;53.450;15.496;2022-11-15T05:44:11;57.08;;;20.73;;
25721;SDS011;13578;53.450;15.496;2022-11-15T05:47:17;58.47;;;23.83;;
25721;SDS011;13578;53.450;15.496;2022-11-15T05:50:24;50.08;;;22.20;;
25721;SDS011;13578;53.450;15.496;2022-11-15T05:53:25;48.78;;;22.42;;
25721;SDS011;13578;53.450;15.496;2022-11-15T05:56:26;42.88;;;21.10;;
25721;SDS011;13578;53.450;15.496;2022-11-15T05:59:29;51.92;;;22.50;;
25721;SDS011;13578;53.450;15.496;2022-11-15T06:02:31;49.13;;;21.25;;
25721;SDS011;13578;53.450;15.496;2022-11-15T06:05:31;61.05;;;22.95;;
25721;SDS011;13578;53.450;15.496;2022-11-15T06:08:32;52.20;;;20.52;;
25721;SDS011;13578;53.450;15.496;2022-11-15T06:11:33;54.45;;;23.48;;
25721;SDS011;13578;53.450;15.496;2022-11-15T06:14:33;51.50;;;21.60;;
25721;SDS011;13578;53.450;15.496;2022-11-15T06:17:34;53.35;;;21.63;;
25721;SDS011;13578;53.450;15.496;2022-11-15T06:20:34;51.15;;;22.38;;
25721;SDS011;13578;53.450;15.496;2022-11-15T06:23:35;49.03;;;21.88;;
25721;SDS011;13578;53.450;15.496;2022-11-15T06:26:36;50.25;;;22.33;;
25721;SDS011;13578;53.450;15.496;2022-11-15T06:29:36;47.67;;;20.25;;
25721;SDS011;13578;53.450;15.496;2022-11-15T06:32:37;60.70;;;21.67;;
25721;SDS011;13578;53.450;15.496;2022-11-15T06:35:37;41.10;;;19.35;;
25721;SDS011;13578;53.450;15.496;2022-11-15T06:38:38;46.75;;;21.25;;
25721;SDS011;13578;53.450;15.496;2022-11-15T06:41:39;53.53;;;19.95;;
25721;SDS011;13578;53.450;15.496;2022-11-15T06:44:39;46.45;;;20.75;;
25721;SDS011;13578;53.450;15.496;2022-11-15T06:47:46;62.78;;;21.00;;
25721;SDS011;13578;53.450;15.496;2022-11-15T06:50:51;54.85;;;19.38;;
25721;SDS011;13578;53.450;15.496;2022-11-15T06:53:52;45.37;;;19.00;;
25721;SDS011;13578;53.450;15.496;2022-11-15T06:56:52;62.72;;;20.48;;
25721;SDS011;13578;53.450;15.496;2022-11-15T06:59:53;55.97;;;20.15;;
25721;SDS011;13578;53.450;15.496;2022-11-15T07:02:53;52.45;;;20.55;;
25721;SDS011;13578;53.450;15.496;2022-11-15T07:05:55;49.90;;;19.05;;
25721;SDS011;13578;53.450;15.496;2022-11-15T07:08:56;56.83;;;21.33;;
25721;SDS011;13578;53.450;15.496;2022-11-15T07:11:57;59.47;;;21.27;;
25721;SDS011;13578;53.450;15.496;2022-11-15T07:14:57;44.08;;;20.35;;
25721;SDS011;13578;53.450;15.496;2022-11-15T07:18:01;57.47;;;21.17;;
25721;SDS011;13578;53.450;15.496;2022-11-15T07:21:05;43.13;;;19.45;;
25721;SDS011;13578;53.450;15.496;2022-11-15T07:24:07;63.80;;;19.90;;
25721;SDS011;13578;53.450;15.496;2022-11-15T07:27:08;62.53;;;20.02;;
25721;SDS011;13578;53.450;15.496;2022-11-15T07:30:08;64.10;;;21.85;;
25721;SDS011;13578;53.450;15.496;2022-11-15T07:33:10;44.33;;;18.75;;
25721;SDS011;13578;53.450;15.496;2022-11-15T07:36:10;74.85;;;18.33;;
25721;SDS011;13578;53.450;15.496;2022-11-15T07:39:11;47.15;;;18.85;;
25721;SDS011;13578;53.450;15.496;2022-11-15T07:42:12;50.78;;;20.17;;
25721;SDS011;13578;53.450;15.496;2022-11-15T07:45:31;45.97;;;20.08;;
25721;SDS011;13578;53.450;15.496;2022-11-15T07:48:36;47.42;;;20.20;;
25721;SDS011;13578;53.450;15.496;2022-11-15T07:51:39;44.75;;;19.63;;
25721;SDS011;13578;53.450;15.496;2022-11-15T07:54:40;60.00;;;19.35;;
25721;SDS011;13578;53.450;15.496;2022-11-15T07:57:40;58.67;;;19.48;;
25721;SDS011;13578;53.450;15.496;2022-11-15T08:00:41;56.00;;;20.75;;
25721;SDS011;13578;53.450;15.496;2022-11-15T08:03:41;41.78;;;18.48;;
25721;SDS011;13578;53.450;15.496;2022-11-15T08:06:42;39.30;;;18.45;;
25721;SDS011;13578;53.450;15.496;2022-11-15T08:09:42;35.80;;;18.33;;
25721;SDS011;13578;53.450;15.496;2022-11-15T08:12:43;40.03;;;18.05;;
25721;SDS011;13578;53.450;15.496;2022-11-15T08:15:44;46.28;;;18.90;;
25721;SDS011;13578;53.450;15.496;2022-11-15T08:18:44;44.05;;;19.00;;
25721;SDS011;13578;53.450;15.496;2022-11-15T08:21:45;55.00;;;19.98;;
25721;SDS011;13578;53.450;15.496;2022-11-15T08:24:46;46.22;;;19.65;;
25721;SDS011;13578;53.450;15.496;2022-11-15T08:27:47;68.03;;;19.17;;
25721;SDS011;13578;53.450;15.496;2022-11-15T08:30:47;44.03;;;18.23;;
25721;SDS011;13578;53.450;15.496;2022-11-15T08:33:48;42.63;;;19.38;;
25721;SDS011;13578;53.450;15.496;2022-11-15T08:36:48;47.88;;;19.05;;
25721;SDS011;13578;53.450;15.496;2022-11-15T08:39:49;52.72;;;20.10;;
25721;SDS011;13578;53.450;15.496;2022-11-15T08:42:49;55.78;;;20.00;;
25721;SDS011;13578;53.450;15.496;2022-11-15T08:45:50;45.30;;;19.05;;
25721;SDS011;13578;53.450;15.496;2022-11-15T08:48:51;42.80;;;19.55;;
25721;SDS011;13578;53.450;15.496;2022-11-15T08:51:51;39.55;;;18.23;;
25721;SDS011;13578;53.450;15.496;2022-11-15T08:54:52;37.17;;;18.08;;
25721;SDS011;13578;53.450;15.496;2022-11-15T08:57:52;53.10;;;18.83;;
25721;SDS011;13578;53.450;15.496;2022-11-15T09:00:53;55.67;;;19.67;;
25721;SDS011;13578;53.450;15.496;2022-11-15T09:03:54;52.15;;;18.38;;
25721;SDS011;13578;53.450;15.496;2022-11-15T09:06:54;49.42;;;18.65;;
25721;SDS011;13578;53.450;15.496;2022-11-15T09:09:55;45.38;;;20.00;;
25721;SDS011;13578;53.450;15.496;2022-11-15T09:12:56;44.83;;;19.17;;
25721;SDS011;13578;53.450;15.496;2022-11-15T09:15:58;43.30;;;18.33;;
25721;SDS011;13578;53.450;15.496;2022-11-15T09:18:59;35.38;;;18.05;;
25721;SDS011;13578;53.450;15.496;2022-11-15T09:22:00;44.85;;;19.77;;
25721;SDS011;13578;53.450;15.496;2022-11-15T09:25:01;41.80;;;19.63;;
25721;SDS011;13578;53.450;15.496;2022-11-15T09:28:05;49.35;;;19.52;;
25721;SDS011;13578;53.450;15.496;2022-11-15T09:31:07;32.80;;;18.10;;
25721;SDS011;13578;53.450;15.496;2022-11-15T09:34:08;37.53;;;17.42;;
25721;SDS011;13578;53.450;15.496;2022-11-15T09:37:08;45.00;;;19.52;;
25721;SDS011;13578;53.450;15.496;2022-11-15T09:40:12;39.72;;;18.10;;
25721;SDS011;13578;53.450;15.496;2022-11-15T09:50:14;39.05;;;18.75;;
25721;SDS011;13578;53.450;15.496;2022-11-15T09:53:22;42.42;;;18.15;;
25721;SDS011;13578;53.450;15.496;2022-11-15T09:56:46;36.85;;;17.98;;
25721;SDS011;13578;53.450;15.496;2022-11-15T10:00:00;41.15;;;19.00;;
25721;SDS011;13578;53.450;15.496;2022-11-15T10:03:27;37.95;;;17.42;;
25721;SDS011;13578;53.450;15.496;2022-11-15T10:06:30;43.65;;;18.50;;
25721;SDS011;13578;53.450;15.496;2022-11-15T10:09:57;36.38;;;18.25;;
25721;SDS011;13578;53.450;15.496;2022-11-15T10:12:57;59.78;;;19.70;;
25721;SDS011;13578;53.450;15.496;2022-11-15T10:16:12;35.35;;;16.50;;
25721;SDS011;13578;53.450;15.496;2022-11-15T10:25:44;42.85;;;18.80;;
25721;SDS011;13578;53.450;15.496;2022-11-15T10:28:44;38.95;;;18.45;;
25721;SDS011;13578;53.450;15.496;2022-11-15T10:31:45;38.78;;;18.20;;
25721;SDS011;13578;53.450;15.496;2022-11-15T10:34:47;37.25;;;19.13;;
25721;SDS011;13578;53.450;15.496;2022-11-15T10:37:48;40.45;;;17.50;;
25721;SDS011;13578;53.450;15.496;2022-11-15T10:40:49;43.28;;;17.13;;
25721;SDS011;13578;53.450;15.496;2022-11-15T10:44:09;36.88;;;17.95;;
25721;SDS011;13578;53.450;15.496;2022-11-15T10:47:21;34.50;;;16.92;;
25721;SDS011;13578;53.450;15.496;2022-11-15T10:50:31;49.20;;;18.10;;
25721;SDS011;13578;53.450;15.496;2022-11-15T10:53:38;36.22;;;17.80;;
25721;SDS011;13578;53.450;15.496;2022-11-15T10:56:47;47.67;;;19.90;;
25721;SDS011;13578;53.450;15.496;2022-11-15T10:59:57;39.50;;;18.83;;
25721;SDS011;13578;53.450;15.496;2022-11-15T11:03:02;32.97;;;17.08;;
25721;SDS011;13578;53.450;15.496;2022-11-15T11:06:16;34.75;;;17.38;;
25721;SDS011;13578;53.450;15.496;2022-11-15T11:09:31;41.17;;;18.17;;
25721;SDS011;13578;53.450;15.496;2022-11-15T11:12:36;34.70;;;17.83;;
25721;SDS011;13578;53.450;15.496;2022-11-15T11:15:37;36.42;;;17.50;;
25721;SDS011;13578;53.450;15.496;2022-11-15T11:18:42;39.10;;;18.15;;
25721;SDS011;13578;53.450;15.496;2022-11-15T11:25:47;44.72;;;20.65;;
25721;SDS011;13578;53.450;15.496;2022-11-15T11:29:02;52.38;;;20.15;;
25721;SDS011;13578;53.450;15.496;2022-11-15T11:42:17;38.47;;;17.08;;
25721;SDS011;13578;53.450;15.496;2022-11-15T11:48:45;49.90;;;21.05;;
25721;SDS011;13578;53.450;15.496;2022-11-15T11:51:54;44.97;;;18.92;;
25721;SDS011;13578;53.450;15.496;2022-11-15T11:55:03;54.80;;;18.85;;
25721;SDS011;13578;53.450;15.496;2022-11-15T12:01:42;48.80;;;18.75;;
25721;SDS011;13578;53.450;15.496;2022-11-15T12:04:45;40.15;;;16.35;;
25721;SDS011;13578;53.450;15.496;2022-11-15T12:07:51;35.10;;;17.50;;
25721;SDS011;13578;53.450;15.496;2022-11-15T12:14:27;33.13;;;16.38;;
25721;SDS011;13578;53.450;15.496;2022-11-15T12:17:32;49.63;;;20.17;;
25721;SDS011;13578;53.450;15.496;2022-11-15T12:20:34;40.55;;;18.17;;
25721;SDS011;13578;53.450;15.496;2022-11-15T12:23:41;47.53;;;20.35;;
25721;SDS011;13578;53.450;15.496;2022-11-15T12:26:51;42.60;;;19.50;;
25721;SDS011;13578;53.450;15.496;2022-11-15T12:30:13;48.42;;;19.27;;
25721;SDS011;13578;53.450;15.496;2022-11-15T12:33:29;44.25;;;19.75;;
25721;SDS011;13578;53.450;15.496;2022-11-15T12:36:34;43.95;;;19.50;;
25721;SDS011;13578;53.450;15.496;2022-11-15T12:40:02;41.17;;;18.20;;
25721;SDS011;13578;53.450;15.496;2022-11-15T12:46:19;39.28;;;17.75;;
25721;SDS011;13578;53.450;15.496;2022-11-15T12:52:30;42.80;;;16.42;;
25721;SDS011;13578;53.450;15.496;2022-11-15T12:55:32;39.05;;;18.23;;
25721;SDS011;13578;53.450;15.496;2022-11-15T13:01:55;39.83;;;17.50;;
25721;SDS011;13578;53.450;15.496;2022-11-15T13:08:38;41.65;;;18.75;;
25721;SDS011;13578;53.450;15.496;2022-11-15T13:11:49;46.33;;;19.20;;
25721;SDS011;13578;53.450;15.496;2022-11-15T13:14:51;55.97;;;20.67;;
25721;SDS011;13578;53.450;15.496;2022-11-15T13:17:54;58.10;;;19.02;;
25721;SDS011;13578;53.450;15.496;2022-11-15T13:20:55;44.42;;;19.70;;
25721;SDS011;13578;53.450;15.496;2022-11-15T13:23:57;52.03;;;19.92;;
25721;SDS011;13578;53.450;15.496;2022-11-15T13:26:57;45.03;;;17.48;;
25721;SDS011;13578;53.450;15.496;2022-11-15T13:30:12;48.65;;;18.40;;
25721;SDS011;13578;53.450;15.496;2022-11-15T13:33:17;65.70;;;19.80;;
25721;SDS011;13578;53.450;15.496;2022-11-15T13:36:24;53.95;;;19.35;;
25721;SDS011;13578;53.450;15.496;2022-11-15T13:39:34;45.28;;;20.05;;
25721;SDS011;13578;53.450;15.496;2022-11-15T13:42:37;53.20;;;20.90;;
25721;SDS011;13578;53.450;15.496;2022-11-15T13:45:38;55.88;;;19.60;;
25721;SDS011;13578;53.450;15.496;2022-11-15T13:48:39;58.25;;;20.13;;
25721;SDS011;13578;53.450;15.496;2022-11-15T13:51:47;58.93;;;18.23;;
25721;SDS011;13578;53.450;15.496;2022-11-15T13:55:13;51.40;;;19.08;;
25721;SDS011;13578;53.450;15.496;2022-11-15T13:58:19;47.65;;;19.00;;
25721;SDS011;13578;53.450;15.496;2022-11-15T14:01:20;71.75;;;19.70;;
25721;SDS011;13578;53.450;15.496;2022-11-15T14:04:22;62.60;;;21.17;;
25721;SDS011;13578;53.450;15.496;2022-11-15T14:07:25;55.58;;;19.23;;
25721;SDS011;13578;53.450;15.496;2022-11-15T14:10:31;46.70;;;19.30;;
25721;SDS011;13578;53.450;15.496;2022-11-15T14:13:33;60.72;;;21.63;;
25721;SDS011;13578;53.450;15.496;2022-11-15T14:16:35;51.83;;;19.73;;
25721;SDS011;13578;53.450;15.496;2022-11-15T14:19:38;49.40;;;20.15;;
25721;SDS011;13578;53.450;15.496;2022-11-15T14:22:40;58.00;;;20.80;;
25721;SDS011;13578;53.450;15.496;2022-11-15T14:25:56;75.03;;;21.97;;
25721;SDS011;13578;53.450;15.496;2022-11-15T14:29:20;47.78;;;19.50;;
25721;SDS011;13578;53.450;15.496;2022-11-15T14:32:29;63.03;;;18.75;;
25721;SDS011;13578;53.450;15.496;2022-11-15T14:38:44;82.07;;;19.60;;
25721;SDS011;13578;53.450;15.496;2022-11-15T14:41:45;65.63;;;21.58;;
25721;SDS011;13578;53.450;15.496;2022-11-15T14:44:46;75.47;;;20.83;;
25721;SDS011;13578;53.450;15.496;2022-11-15T14:47:47;65.60;;;21.05;;
25721;SDS011;13578;53.450;15.496;2022-11-15T14:50:48;48.55;;;19.05;;
25721;SDS011;13578;53.450;15.496;2022-11-15T14:53:49;62.08;;;21.30;;
25721;SDS011;13578;53.450;15.496;2022-11-15T14:56:49;47.38;;;18.35;;
25721;SDS011;13578;53.450;15.496;2022-11-15T14:59:50;61.50;;;20.38;;
25721;SDS011;13578;53.450;15.496;2022-11-15T15:02:52;42.08;;;17.60;;
25721;SDS011;13578;53.450;15.496;2022-11-15T15:05:54;59.03;;;18.98;;
25721;SDS011;13578;53.450;15.496;2022-11-15T15:08:56;48.97;;;18.98;;
25721;SDS011;13578;53.450;15.496;2022-11-15T15:11:57;64.32;;;18.35;;
25721;SDS011;13578;53.450;15.496;2022-11-15T15:14:57;61.25;;;19.25;;
25721;SDS011;13578;53.450;15.496;2022-11-15T15:17:58;75.32;;;18.50;;
25721;SDS011;13578;53.450;15.496;2022-11-15T15:21:00;83.63;;;19.00;;
25721;SDS011;13578;53.450;15.496;2022-11-15T15:24:09;55.92;;;18.75;;
25721;SDS011;13578;53.450;15.496;2022-11-15T15:27:15;71.88;;;20.17;;
25721;SDS011;13578;53.450;15.496;2022-11-15T15:30:15;76.25;;;19.20;;
25721;SDS011;13578;53.450;15.496;2022-11-15T15:33:16;81.80;;;19.48;;
25721;SDS011;13578;53.450;15.496;2022-11-15T15:36:17;70.85;;;20.13;;
25721;SDS011;13578;53.450;15.496;2022-11-15T15:39:19;82.53;;;17.75;;
25721;SDS011;13578;53.450;15.496;2022-11-15T15:42:20;68.10;;;21.27;;
25721;SDS011;13578;53.450;15.496;2022-11-15T15:45:21;64.97;;;19.13;;
25721;SDS011;13578;53.450;15.496;2022-11-15T15:48:22;66.70;;;18.92;;
25721;SDS011;13578;53.450;15.496;2022-11-15T15:51:22;82.07;;;19.73;;
25721;SDS011;13578;53.450;15.496;2022-11-15T15:54:23;90.65;;;19.85;;
25721;SDS011;13578;53.450;15.496;2022-11-15T15:57:24;59.25;;;19.15;;
25721;SDS011;13578;53.450;15.496;2022-11-15T16:00:24;70.20;;;20.20;;
25721;SDS011;13578;53.450;15.496;2022-11-15T16:03:25;51.97;;;19.60;;
25721;SDS011;13578;53.450;15.496;2022-11-15T16:09:35;145.90;;;27.05;;
25721;SDS011;13578;53.450;15.496;2022-11-15T16:12:55;88.97;;;20.15;;
25721;SDS011;13578;53.450;15.496;2022-11-15T16:15:56;56.53;;;20.42;;
25721;SDS011;13578;53.450;15.496;2022-11-15T16:18:57;62.75;;;19.05;;
25721;SDS011;13578;53.450;15.496;2022-11-15T16:21:57;68.15;;;17.95;;
25721;SDS011;13578;53.450;15.496;2022-11-15T16:24:58;50.20;;;19.02;;
25721;SDS011;13578;53.450;15.496;2022-11-15T16:27:59;79.13;;;17.73;;
25721;SDS011;13578;53.450;15.496;2022-11-15T16:31:02;55.13;;;17.70;;
25721;SDS011;13578;53.450;15.496;2022-11-15T16:34:03;45.72;;;15.85;;
25721;SDS011;13578;53.450;15.496;2022-11-15T16:37:03;72.72;;;16.90;;
25721;SDS011;13578;53.450;15.496;2022-11-15T16:40:07;55.35;;;17.20;;
25721;SDS011;13578;53.450;15.496;2022-11-15T16:43:17;54.08;;;16.80;;
25721;SDS011;13578;53.450;15.496;2022-11-15T16:46:19;66.05;;;16.83;;
25721;SDS011;13578;53.450;15.496;2022-11-15T16:49:21;50.40;;;15.90;;
25721;SDS011;13578;53.450;15.496;2022-11-15T16:52:22;52.50;;;17.38;;
25721;SDS011;13578;53.450;15.496;2022-11-15T16:55:24;52.78;;;17.85;;
25721;SDS011;13578;53.450;15.496;2022-11-15T16:58:26;50.28;;;16.58;;
25721;SDS011;13578;53.450;15.496;2022-11-15T17:01:32;47.15;;;16.33;;
25721;SDS011;13578;53.450;15.496;2022-11-15T17:04:45;61.90;;;16.25;;
25721;SDS011;13578;53.450;15.496;2022-11-15T17:07:47;43.70;;;16.23;;
25721;SDS011;13578;53.450;15.496;2022-11-15T17:10:49;49.58;;;16.27;;
25721;SDS011;13578;53.450;15.496;2022-11-15T17:13:50;56.47;;;18.30;;
25721;SDS011;13578;53.450;15.496;2022-11-15T17:16:50;55.88;;;18.15;;
25721;SDS011;13578;53.450;15.496;2022-11-15T17:19:52;43.22;;;16.80;;
25721;SDS011;13578;53.450;15.496;2022-11-15T17:22:53;58.33;;;19.30;;
25721;SDS011;13578;53.450;15.496;2022-11-15T17:25:58;64.20;;;18.08;;
25721;SDS011;13578;53.450;15.496;2022-11-15T17:29:04;46.95;;;16.92;;
25721;SDS011;13578;53.450;15.496;2022-11-15T17:32:08;54.70;;;18.05;;
25721;SDS011;13578;53.450;15.496;2022-11-15T17:35:10;39.30;;;17.45;;
25721;SDS011;13578;53.450;15.496;2022-11-15T17:38:12;53.08;;;17.23;;
25721;SDS011;13578;53.450;15.496;2022-11-15T17:41:14;48.58;;;16.70;;
25721;SDS011;13578;53.450;15.496;2022-11-15T17:44:15;50.15;;;19.05;;
25721;SDS011;13578;53.450;15.496;2022-11-15T17:47:18;50.17;;;17.75;;
25721;SDS011;13578;53.450;15.496;2022-11-15T17:50:19;42.63;;;18.20;;
25721;SDS011;13578;53.450;15.496;2022-11-15T17:53:19;49.47;;;16.67;;
25721;SDS011;13578;53.450;15.496;2022-11-15T17:56:21;47.97;;;17.65;;
25721;SDS011;13578;53.450;15.496;2022-11-15T17:59:22;53.60;;;17.42;;
25721;SDS011;13578;53.450;15.496;2022-11-15T18:02:23;48.72;;;17.23;;
25721;SDS011;13578;53.450;15.496;2022-11-15T18:05:23;46.08;;;17.63;;
25721;SDS011;13578;53.450;15.496;2022-11-15T18:08:24;59.42;;;18.50;;
25721;SDS011;13578;53.450;15.496;2022-11-15T18:11:26;55.20;;;18.42;;
25721;SDS011;13578;53.450;15.496;2022-11-15T18:14:28;48.33;;;18.20;;
25721;SDS011;13578;53.450;15.496;2022-11-15T18:17:29;57.80;;;19.67;;
25721;SDS011;13578;53.450;15.496;2022-11-15T18:20:29;68.07;;;19.08;;
25721;SDS011;13578;53.450;15.496;2022-11-15T18:23:30;50.00;;;18.27;;
25721;SDS011;13578;53.450;15.496;2022-11-15T18:26:32;71.75;;;19.45;;
25721;SDS011;13578;53.450;15.496;2022-11-15T18:29:32;50.17;;;18.67;;
25721;SDS011;13578;53.450;15.496;2022-11-15T18:32:36;72.32;;;19.88;;
25721;SDS011;13578;53.450;15.496;2022-11-15T18:35:37;60.83;;;20.38;;
25721;SDS011;13578;53.450;15.496;2022-11-15T18:38:37;65.20;;;21.48;;
25721;SDS011;13578;53.450;15.496;2022-11-15T18:41:39;58.10;;;20.90;;
25721;SDS011;13578;53.450;15.496;2022-11-15T18:44:39;75.82;;;19.70;;
25721;SDS011;13578;53.450;15.496;2022-11-15T18:47:40;57.83;;;18.67;;
25721;SDS011;13578;53.450;15.496;2022-11-15T18:50:41;71.03;;;21.38;;
25721;SDS011;13578;53.450;15.496;2022-11-15T18:53:42;54.38;;;19.42;;
25721;SDS011;13578;53.450;15.496;2022-11-15T18:56:45;51.72;;;18.75;;
25721;SDS011;13578;53.450;15.496;2022-11-15T18:59:46;46.25;;;17.65;;
25721;SDS011;13578;53.450;15.496;2022-11-15T19:02:47;57.65;;;19.75;;
25721;SDS011;13578;53.450;15.496;2022-11-15T19:05:47;52.28;;;19.42;;
25721;SDS011;13578;53.450;15.496;2022-11-15T19:08:49;51.20;;;17.00;;